Time;durP1;ratioP1;P1;durP2;ratioP2;P2;SDS_P1;SDS_P2;PMS_P1;PMS_P2;Temp;Humidity;BMP_temperature;BMP_pressure;BME280_temperature;BME280_humidity;BME280_pressure;Samples;Min_cycle;Max_cycle;Signal;HPM_P1;HPM_P2
2023/07/13 00:02:06;;;;;;;5.53;1.40;;;28.30;57.30;;;;;;5028077;28;20472;-75
2023/07/13 00:04:34;;;;;;;2.23;1.57;;;28.30;57.30;;;;;;5030872;28;20835;-75
2023/07/13 00:07:02;;;;;;;1.80;1.70;;;28.30;57.30;;;;;;5030696;28;20406;-75
2023/07/13 00:09:30;;;;;;;5.20;1.50;;;28.30;57.20;;;;;;5026828;28;20504;-75
2023/07/13 00:11:58;;;;;;;3.00;2.20;;;28.30;57.40;;;;;;5030486;28;20527;-75
2023/07/13 00:14:27;;;;;;;1.70;1.60;;;28.30;57.30;;;;;;5028362;28;20476;-74
2023/07/13 00:16:55;;;;;;;1.77;1.67;;;28.30;57.30;;;;;;5030829;28;20821;-75
2023/07/13 00:19:24;;;;;;;3.00;1.57;;;28.30;57.20;;;;;;5030280;28;20414;-75
2023/07/13 00:21:55;;;;;;;1.80;1.70;;;28.20;57.20;;;;;;5030560;28;20859;-75
2023/07/13 00:24:23;;;;;;;4.20;1.60;;;28.30;57.50;;;;;;5027799;28;20442;-75
2023/07/13 00:26:52;;;;;;;1.70;1.60;;;28.30;57.40;;;;;;5030535;28;20435;-75
2023/07/13 00:29:20;;;;;;;3.73;2.07;;;28.20;57.40;;;;;;5030247;28;20530;-75
2023/07/13 00:31:48;;;;;;;1.80;1.70;;;28.20;57.30;;;;;;5030503;28;20501;-73
2023/07/13 00:34:16;;;;;;;1.57;1.47;;;28.20;57.30;;;;;;5030982;28;20495;-74
2023/07/13 00:36:46;;;;;;;2.03;1.70;;;28.20;57.40;;;;;;5030886;28;20453;-75
2023/07/13 00:39:13;;;;;;;1.40;1.30;;;28.20;57.40;;;;;;5030882;28;20435;-74
2023/07/13 00:41:43;;;;;;;1.70;1.60;;;28.20;57.40;;;;;;5030596;28;20497;-74
2023/07/13 00:44:12;;;;;;;3.10;1.83;;;28.20;57.50;;;;;;5028290;28;20518;-74
2023/07/13 00:46:40;;;;;;;1.80;1.70;;;28.20;57.40;;;;;;5030810;28;20570;-75
2023/07/13 00:49:10;;;;;;;1.50;1.40;;;28.20;57.20;;;;;;5030636;28;20783;-75
2023/07/13 00:51:40;;;;;;;1.80;1.70;;;28.20;57.50;;;;;;5030644;28;20414;-74
2023/07/13 00:54:12;;;;;;;1.60;1.50;;;28.20;57.20;;;;;;5029960;28;20489;-74
2023/07/13 00:56:40;;;;;;;1.70;1.60;;;28.20;57.30;;;;;;5030799;28;20538;-75
2023/07/13 00:59:08;;;;;;;2.13;1.93;;;28.10;57.20;;;;;;5030626;28;20433;-74
2023/07/13 01:01:36;;;;;;;1.90;1.80;;;28.10;57.20;;;;;;5027814;28;20429;-74
2023/07/13 01:04:07;;;;;;;5.13;1.60;;;28.10;57.20;;;;;;5030489;28;20441;-74
2023/07/13 01:06:36;;;;;;;3.40;1.83;;;28.10;57.20;;;;;;5030800;28;20460;-74
2023/07/13 01:09:04;;;;;;;3.57;1.80;;;28.10;57.20;;;;;;5030906;28;20406;-74
2023/07/13 01:11:33;;;;;;;1.87;1.50;;;28.10;57.10;;;;;;5030404;28;20509;-74
2023/07/13 01:14:02;;;;;;;2.53;1.73;;;28.10;57.10;;;;;;5030660;28;20538;-74
2023/07/13 01:16:32;;;;;;;3.07;1.53;;;28.10;57.20;;;;;;5030809;28;20462;-74
2023/07/13 01:19:01;;;;;;;2.20;1.50;;;28.10;57.10;;;;;;5027788;28;20580;-74
2023/07/13 01:21:30;;;;;;;1.53;1.43;;;28.10;57.00;;;;;;5030082;28;20444;-74
2023/07/13 01:23:58;;;;;;;1.83;1.73;;;28.10;57.00;;;;;;5030380;28;20510;-75
2023/07/13 01:26:27;;;;;;;2.27;2.00;;;28.10;56.90;;;;;;5030491;28;20445;-73
2023/07/13 01:28:56;;;;;;;1.70;1.60;;;28.10;57.10;;;;;;5030489;28;20514;-74
2023/07/13 01:31:24;;;;;;;1.93;1.77;;;28.00;56.70;;;;;;5030476;28;20519;-74
2023/07/13 01:33:53;;;;;;;2.00;1.83;;;28.00;56.70;;;;;;5030194;28;20792;-75
2023/07/13 01:36:21;;;;;;;2.27;1.63;;;28.00;56.80;;;;;;5030695;28;20529;-74
2023/07/13 01:38:50;;;;;;;1.70;1.60;;;28.00;56.80;;;;;;5022739;28;20439;-74
2023/07/13 01:41:18;;;;;;;2.00;1.63;;;28.00;56.60;;;;;;5031027;28;20439;-74
2023/07/13 01:43:46;;;;;;;1.97;1.60;;;28.00;56.70;;;;;;5034294;28;20414;-73
2023/07/13 01:46:14;;;;;;;2.00;1.90;;;28.00;56.70;;;;;;5033587;28;20532;-74
2023/07/13 01:48:45;;;;;;;1.87;1.60;;;28.00;56.80;;;;;;5034240;28;20478;-74
2023/07/13 01:51:13;;;;;;;1.80;1.70;;;27.90;56.50;;;;;;5031316;28;20446;-74
2023/07/13 01:53:41;;;;;;;1.70;1.60;;;27.90;56.60;;;;;;5033454;28;20430;-74
2023/07/13 01:56:10;;;;;;;3.23;1.90;;;27.90;56.50;;;;;;5037643;28;20452;-75
2023/07/13 01:58:38;;;;;;;1.90;1.80;;;28.00;56.70;;;;;;5033316;28;20460;-75
2023/07/13 02:01:06;;;;;;;2.23;1.80;;;27.90;56.50;;;;;;5033811;28;20484;-75
2023/07/13 02:03:34;;;;;;;1.70;1.60;;;28.00;56.50;;;;;;5032422;28;20456;-75
2023/07/13 02:06:02;;;;;;;1.73;1.63;;;27.90;56.40;;;;;;5026527;28;20505;-75
2023/07/13 02:08:31;;;;;;;3.43;2.40;;;27.90;56.40;;;;;;5030981;28;20431;-74
2023/07/13 02:10:59;;;;;;;2.17;2.00;;;27.90;56.40;;;;;;5032852;28;20454;-75
2023/07/13 02:13:28;;;;;;;2.13;1.70;;;27.80;56.30;;;;;;5033491;28;20450;-75
2023/07/13 02:15:56;;;;;;;2.00;1.90;;;27.80;56.30;;;;;;5033246;28;20462;-75
2023/07/13 02:18:24;;;;;;;2.20;2.10;;;27.90;56.30;;;;;;5033168;28;20414;-75
2023/07/13 02:20:52;;;;;;;6.43;2.13;;;27.90;56.30;;;;;;5033151;28;20456;-75
2023/07/13 02:23:20;;;;;;;3.30;3.00;;;27.80;56.20;;;;;;5033294;28;20446;-75
2023/07/13 02:25:48;;;;;;;3.37;2.53;;;27.90;56.30;;;;;;5030987;28;20490;-75
2023/07/13 02:28:15;;;;;;;4.70;3.10;;;27.90;56.10;;;;;;5029253;28;20454;-75
2023/07/13 02:30:45;;;;;;;3.87;2.97;;;27.90;56.20;;;;;;5032856;28;20406;-75
2023/07/13 02:33:12;;;;;;;3.30;3.00;;;27.80;56.10;;;;;;5033644;28;20505;-75
2023/07/13 02:35:40;;;;;;;3.23;2.93;;;27.80;56.00;;;;;;5032763;28;20550;-75
2023/07/13 02:38:08;;;;;;;7.57;3.30;;;27.80;56.00;;;;;;5032969;28;20471;-75
2023/07/13 02:40:36;;;;;;;4.50;3.47;;;27.80;55.80;;;;;;5032838;28;20497;-74
2023/07/13 02:43:04;;;;;;;8.67;5.17;;;27.90;56.20;;;;;;5031022;28;20486;-74
2023/07/13 02:45:32;;;;;;;5.30;4.80;;;27.80;55.80;;;;;;5032539;28;20450;-75
2023/07/13 02:48:01;;;;;;;4.90;4.40;;;27.80;55.80;;;;;;5033083;28;21025;-75
2023/07/13 02:50:30;;;;;;;5.20;4.70;;;27.80;55.70;;;;;;5032616;28;20447;-75
2023/07/13 02:52:58;;;;;;;8.73;5.23;;;27.80;55.80;;;;;;5031977;28;20430;-75
2023/07/13 02:55:26;;;;;;;6.27;5.03;;;27.80;55.80;;;;;;5032296;28;20434;-75
2023/07/13 02:57:54;;;;;;;8.90;6.30;;;27.80;55.80;;;;;;5032168;28;20517;-75
2023/07/13 03:00:23;;;;;;;7.50;5.97;;;27.80;55.60;;;;;;5028435;28;20426;-75
2023/07/13 03:02:50;;;;;;;6.80;6.10;;;27.80;55.80;;;;;;5029670;28;20426;-75
2023/07/13 03:05:20;;;;;;;7.50;6.03;;;27.80;55.80;;;;;;5031592;28;20481;-73
2023/07/13 03:07:48;;;;;;;7.20;6.13;;;27.80;55.70;;;;;;5032312;28;20779;-74
2023/07/13 03:10:17;;;;;;;7.40;6.57;;;27.80;55.70;;;;;;5032008;28;20444;-75
2023/07/13 03:12:45;;;;;;;11.50;6.30;;;27.80;55.80;;;;;;5032254;28;20525;-75
2023/07/13 03:15:13;;;;;;;10.73;6.20;;;27.80;55.60;;;;;;5024216;28;20629;-74
2023/07/13 03:17:41;;;;;;;9.53;6.40;;;27.80;55.70;;;;;;5024988;28;20447;-75
2023/07/13 03:20:10;;;;;;;5.70;5.13;;;27.80;55.60;;;;;;5032073;28;20422;-75
2023/07/13 03:22:40;;;;;;;6.70;5.77;;;27.80;55.40;;;;;;5032107;28;20418;-74
2023/07/13 03:25:09;;;;;;;7.97;6.20;;;27.80;55.60;;;;;;5032013;28;20494;-74
2023/07/13 03:27:36;;;;;;;9.40;6.03;;;27.80;55.60;;;;;;5031648;28;20509;-75
2023/07/13 03:30:06;;;;;;;8.87;6.03;;;27.80;55.40;;;;;;5031516;28;20411;-74
2023/07/13 03:32:34;;;;;;;9.07;5.77;;;27.80;55.50;;;;;;5029967;28;20530;-75
2023/07/13 03:35:02;;;;;;;9.20;6.40;;;27.80;55.50;;;;;;5025389;28;20450;-75
2023/07/13 03:37:30;;;;;;;6.37;5.73;;;27.80;55.40;;;;;;5031570;28;20534;-75
2023/07/13 03:39:59;;;;;;;7.37;6.33;;;27.80;55.30;;;;;;5031375;28;20469;-75
2023/07/13 03:42:27;;;;;;;6.03;5.47;;;27.80;55.40;;;;;;5031497;28;20513;-75
2023/07/13 03:44:55;;;;;;;8.73;5.77;;;27.80;55.40;;;;;;5029396;28;20453;-75
2023/07/13 03:47:23;;;;;;;6.60;5.90;;;27.80;55.30;;;;;;5031449;28;20546;-75
2023/07/13 03:49:50;;;;;;;6.03;5.40;;;27.80;55.30;;;;;;5031634;28;20444;-74
2023/07/13 03:52:18;;;;;;;6.37;5.50;;;27.70;55.30;;;;;;5021681;28;20453;-75
2023/07/13 03:54:46;;;;;;;12.30;5.30;;;27.80;55.40;;;;;;5029069;28;20525;-75
2023/07/13 03:57:15;;;;;;;5.73;5.20;;;27.80;55.30;;;;;;5024850;28;20452;-74
2023/07/13 03:59:43;;;;;;;5.60;5.03;;;27.80;55.20;;;;;;5031482;28;20421;-75
2023/07/13 04:02:11;;;;;;;5.90;4.90;;;27.80;55.30;;;;;;5031575;28;20507;-75
2023/07/13 04:04:40;;;;;;;8.33;4.70;;;27.80;55.10;;;;;;5030940;28;20520;-75
2023/07/13 04:07:09;;;;;;;5.50;4.80;;;27.80;55.20;;;;;;5020536;28;20528;-75
2023/07/13 04:09:36;;;;;;;6.70;4.80;;;27.80;55.20;;;;;;5027620;28;20971;-75
2023/07/13 04:12:05;;;;;;;5.37;4.17;;;27.80;55.70;;;;;;5019504;28;20953;-75
2023/07/13 04:14:35;;;;;;;5.47;4.77;;;27.70;55.10;;;;;;5029858;28;20414;-75
2023/07/13 04:17:03;;;;;;;4.80;4.30;;;27.80;55.20;;;;;;5022977;28;20446;-74
2023/07/13 04:19:31;;;;;;;4.87;4.00;;;27.80;55.10;;;;;;5030850;28;20436;-74
2023/07/13 04:21:59;;;;;;;7.57;4.57;;;27.80;55.10;;;;;;5030752;28;20454;-74
2023/07/13 04:24:27;;;;;;;5.03;3.90;;;27.80;55.20;;;;;;5030991;28;20489;-75
2023/07/13 04:26:59;;;;;;;4.30;3.90;;;27.80;55.00;;;;;;5030846;28;20898;-75
2023/07/13 04:29:27;;;;;;;4.77;4.13;;;27.80;54.90;;;;;;5028505;28;20441;-74
2023/07/13 04:31:56;;;;;;;5.80;4.07;;;27.80;55.00;;;;;;5030935;28;20414;-75
2023/07/13 04:34:24;;;;;;;7.03;4.00;;;27.80;54.80;;;;;;5030510;28;20964;-74
2023/07/13 04:36:52;;;;;;;4.50;3.60;;;27.80;54.80;;;;;;5030960;28;20453;-74
2023/07/13 04:39:20;;;;;;;4.67;4.00;;;27.90;54.80;;;;;;5031042;28;20471;-75
2023/07/13 04:41:48;;;;;;;3.90;3.50;;;27.80;54.80;;;;;;5030807;28;20508;-75
2023/07/13 04:44:16;;;;;;;4.17;3.40;;;27.90;54.70;;;;;;5029206;28;20890;-74
2023/07/13 04:46:44;;;;;;;8.23;4.00;;;27.90;54.80;;;;;;5027966;28;20510;-75
2023/07/13 04:49:14;;;;;;;4.80;3.63;;;27.90;54.50;;;;;;5030779;28;20414;-75
2023/07/13 04:51:41;;;;;;;4.40;3.73;;;27.90;54.70;;;;;;5025891;28;20473;-75
2023/07/13 04:54:09;;;;;;;7.47;3.60;;;27.90;54.60;;;;;;5030782;28;20440;-75
2023/07/13 04:56:37;;;;;;;6.60;3.60;;;27.90;54.70;;;;;;5030759;28;20551;-75
2023/07/13 04:59:05;;;;;;;4.30;3.83;;;28.00;54.70;;;;;;5030607;28;20481;-74
2023/07/13 05:01:33;;;;;;;3.47;3.20;;;28.00;54.60;;;;;;5026097;28;20525;-74
2023/07/13 05:04:01;;;;;;;3.27;3.00;;;28.00;54.50;;;;;;5030648;28;20443;-74
2023/07/13 05:06:31;;;;;;;3.80;3.00;;;28.00;54.60;;;;;;5038813;28;20529;-75
2023/07/13 05:08:59;;;;;;;5.57;3.70;;;28.00;54.40;;;;;;5030483;28;20439;-74
2023/07/13 05:11:26;;;;;;;3.30;3.00;;;28.00;54.30;;;;;;5030386;28;20498;-75
2023/07/13 05:13:54;;;;;;;3.37;3.07;;;28.00;54.30;;;;;;5030086;28;20482;-75
2023/07/13 05:16:22;;;;;;;5.77;3.10;;;28.00;54.30;;;;;;5031481;28;20426;-75
2023/07/13 05:18:50;;;;;;;4.90;2.90;;;28.00;54.30;;;;;;5030937;28;20465;-75
2023/07/13 05:21:18;;;;;;;3.20;2.97;;;28.00;54.30;;;;;;5034090;28;20991;-75
2023/07/13 05:23:48;;;;;;;5.40;3.40;;;28.00;54.30;;;;;;5034513;28;20494;-75
2023/07/13 05:26:16;;;;;;;4.17;2.87;;;28.00;54.30;;;;;;5034023;28;20523;-75
2023/07/13 05:28:43;;;;;;;6.40;3.20;;;28.00;54.30;;;;;;5034326;28;20418;-74
2023/07/13 05:31:11;;;;;;;6.57;3.40;;;28.10;54.20;;;;;;5025845;28;20440;-75
2023/07/13 05:33:39;;;;;;;3.40;2.90;;;28.10;54.20;;;;;;5031840;28;20438;-74
2023/07/13 05:36:07;;;;;;;4.10;3.13;;;28.10;54.10;;;;;;5033797;28;20446;-75
2023/07/13 05:38:36;;;;;;;6.63;3.07;;;28.10;54.10;;;;;;5034185;28;20447;-74
2023/07/13 05:41:05;;;;;;;3.57;2.50;;;28.10;54.00;;;;;;5033597;28;20904;-75
2023/07/13 05:43:33;;;;;;;5.63;3.30;;;28.10;54.00;;;;;;5034022;28;20416;-75
2023/07/13 05:46:01;;;;;;;5.00;2.60;;;28.10;53.90;;;;;;5033639;28;20495;-75
2023/07/13 05:48:29;;;;;;;4.80;2.80;;;28.10;53.80;;;;;;5031597;28;20482;-75
2023/07/13 05:50:57;;;;;;;3.90;3.13;;;28.20;53.90;;;;;;5033717;28;20445;-74
2023/07/13 05:53:25;;;;;;;3.63;2.97;;;28.20;53.90;;;;;;5029004;28;20438;-76
2023/07/13 05:55:54;;;;;;;3.70;3.10;;;28.20;53.80;;;;;;5033678;28;20469;-74
2023/07/13 05:58:24;;;;;;;3.83;2.93;;;28.20;53.60;;;;;;5033258;28;20475;-74
2023/07/13 06:00:59;;;;;;;4.03;2.50;;;28.20;53.60;;;;;;5033825;28;20471;-75
2023/07/13 06:03:27;;;;;;;2.77;2.57;;;28.20;53.70;;;;;;5033450;28;20983;-75
2023/07/13 06:05:56;;;;;;;2.50;2.30;;;28.20;53.70;;;;;;5024379;28;20845;-75
2023/07/13 06:08:23;;;;;;;3.13;2.63;;;28.30;53.60;;;;;;5033336;28;20540;-75
2023/07/13 06:10:51;;;;;;;5.10;2.17;;;28.30;53.60;;;;;;5033474;28;20449;-74
2023/07/13 06:13:19;;;;;;;9.10;2.80;;;28.30;54.10;;;;;;5033305;28;20418;-75
2023/07/13 06:15:50;;;;;;;3.43;2.57;;;28.40;53.40;;;;;;5033354;28;20491;-75
2023/07/13 06:18:18;;;;;;;3.23;2.13;;;28.30;53.20;;;;;;5026073;28;20443;-75
2023/07/13 06:20:46;;;;;;;4.17;2.43;;;28.40;53.10;;;;;;5030772;28;20422;-74
2023/07/13 06:23:14;;;;;;;3.90;2.40;;;28.40;53.20;;;;;;5030111;28;20484;-75
2023/07/13 06:25:42;;;;;;;3.30;2.43;;;28.50;53.20;;;;;;5028680;28;20438;-75
2023/07/13 06:28:10;;;;;;;10.47;3.50;;;28.50;53.00;;;;;;5031830;28;20450;-75
2023/07/13 06:30:39;;;;;;;3.00;2.40;;;28.50;53.10;;;;;;5033114;28;21021;-74
2023/07/13 06:33:08;;;;;;;2.57;2.10;;;28.50;53.00;;;;;;5033003;28;20458;-74
2023/07/13 06:35:37;;;;;;;8.40;2.00;;;28.60;52.90;;;;;;5032578;28;20473;-75
2023/07/13 06:38:04;;;;;;;4.20;2.50;;;28.50;53.00;;;;;;5030364;28;20514;-75
2023/07/13 06:40:32;;;;;;;3.23;2.30;;;28.50;52.90;;;;;;5032900;28;20495;-74
2023/07/13 06:43:00;;;;;;;2.43;2.00;;;28.40;52.80;;;;;;5032605;28;20464;-74
2023/07/13 06:45:28;;;;;;;2.40;2.20;;;28.50;53.00;;;;;;5032487;28;20452;-75
2023/07/13 06:47:55;;;;;;;5.33;3.20;;;28.50;53.20;;;;;;5032710;28;20536;-75
2023/07/13 06:50:25;;;;;;;2.80;2.43;;;28.50;52.90;;;;;;5032700;28;20447;-75
2023/07/13 06:52:53;;;;;;;4.20;2.30;;;28.50;52.90;;;;;;5027897;28;20468;-74
2023/07/13 06:55:21;;;;;;;3.17;2.23;;;28.50;53.00;;;;;;5020236;28;20450;-75
2023/07/13 06:57:49;;;;;;;4.50;2.07;;;28.60;52.80;;;;;;5032621;28;20442;-74
2023/07/13 07:00:18;;;;;;;2.50;2.30;;;28.60;53.00;;;;;;5031873;28;20474;-75
2023/07/13 07:02:46;;;;;;;3.37;2.63;;;28.60;52.90;;;;;;5032815;28;20489;-75
2023/07/13 07:05:15;;;;;;;3.90;2.40;;;28.60;52.90;;;;;;5033050;28;20574;-75
2023/07/13 07:07:44;;;;;;;3.73;2.63;;;28.70;52.80;;;;;;5033089;28;20442;-73
2023/07/13 07:10:12;;;;;;;4.33;2.60;;;28.70;52.60;;;;;;5032049;28;20476;-75
2023/07/13 07:12:40;;;;;;;4.57;2.33;;;28.70;52.60;;;;;;5029235;28;20543;-75
2023/07/13 07:15:09;;;;;;;6.93;2.13;;;28.80;52.70;;;;;;5031653;28;20558;-74
2023/07/13 07:17:37;;;;;;;4.10;2.60;;;28.80;52.50;;;;;;5031487;28;20516;-75
2023/07/13 07:20:06;;;;;;;5.47;2.40;;;28.80;52.50;;;;;;5032049;28;20454;-74
2023/07/13 07:22:34;;;;;;;3.00;2.20;;;28.80;52.40;;;;;;5032663;28;20551;-75
2023/07/13 07:25:04;;;;;;;2.60;2.30;;;28.90;52.50;;;;;;5024820;28;20445;-75
2023/07/13 07:27:32;;;;;;;3.60;2.03;;;28.90;52.50;;;;;;5032043;28;20450;-75
2023/07/13 07:30:04;;;;;;;4.93;2.23;;;28.90;52.20;;;;;;5026804;28;20554;-75
2023/07/13 07:32:34;;;;;;;3.03;2.70;;;29.00;52.30;;;;;;5031578;28;20505;-75
2023/07/13 07:35:06;;;;;;;3.67;2.43;;;29.00;52.70;;;;;;5053517;22;20482;-77
2023/07/13 07:37:33;;;;;;;2.10;1.90;;;29.10;52.00;;;;;;5012403;28;20403;-78
2023/07/13 07:40:08;;;;;;;2.93;2.33;;;29.10;52.00;;;;;;5020815;28;20505;-78
2023/07/13 07:42:38;;;;;;;2.50;2.20;;;29.10;51.80;;;;;;5009754;28;20455;-78
2023/07/13 07:45:07;;;;;;;4.13;2.50;;;29.20;51.80;;;;;;5000972;28;20476;-77
2023/07/13 07:47:35;;;;;;;5.53;2.23;;;29.20;51.70;;;;;;4998085;28;20824;-78
2023/07/13 07:50:03;;;;;;;2.93;1.90;;;29.20;51.80;;;;;;5002174;28;20983;-78
2023/07/13 07:52:31;;;;;;;2.33;2.17;;;29.30;51.60;;;;;;5011972;28;20467;-78
2023/07/13 07:54:59;;;;;;;3.13;2.00;;;29.30;51.60;;;;;;5007909;28;20490;-77
2023/07/13 07:57:31;;;;;;;3.13;2.07;;;29.40;51.80;;;;;;5004861;28;20851;-77
2023/07/13 08:00:19;;;;;;;4.50;2.00;;;29.40;51.50;;;;;;5006714;28;20419;-78
2023/07/13 08:02:50;;;;;;;6.70;2.00;;;29.50;51.50;;;;;;5011649;28;20524;-78
2023/07/13 08:05:20;;;;;;;6.00;2.07;;;29.50;51.30;;;;;;5007791;28;20503;-78
2023/07/13 08:08:04;;;;;;;1.93;1.73;;;29.60;51.40;;;;;;5011218;28;20504;-78
2023/07/13 08:10:31;;;;;;;3.17;2.20;;;29.70;51.30;;;;;;5015000;28;20491;-78
2023/07/13 08:13:02;;;;;;;3.17;2.23;;;29.80;51.30;;;;;;5004607;28;20535;-78
2023/07/13 08:15:33;;;;;;;2.27;2.00;;;29.80;51.10;;;;;;5006807;28;20518;-76
2023/07/13 08:18:01;;;;;;;2.33;1.80;;;29.80;51.20;;;;;;5011415;28;20494;-76
2023/07/13 08:20:29;;;;;;;5.07;2.30;;;29.90;51.20;;;;;;5010232;28;20459;-78
2023/07/13 08:22:56;;;;;;;4.77;2.10;;;30.00;51.10;;;;;;5011385;28;20444;-76
2023/07/13 08:25:24;;;;;;;3.87;2.20;;;30.10;50.90;;;;;;5013146;28;20468;-79
2023/07/13 08:27:53;;;;;;;3.13;1.83;;;30.20;50.70;;;;;;5011132;28;20467;-78
2023/07/13 08:30:22;;;;;;;4.17;2.50;;;30.20;50.70;;;;;;5018720;28;20431;-77
2023/07/13 08:32:50;;;;;;;4.77;2.60;;;30.10;47.80;;;;;;5011217;28;20446;-77
2023/07/13 08:35:18;;;;;;;6.20;2.50;;;28.20;48.80;;;;;;5026468;28;20461;-79
2023/07/13 08:37:46;;;;;;;6.37;2.63;;;26.70;53.40;;;;;;5006602;28;20880;-76
2023/07/13 08:40:15;;;;;;;8.13;3.00;;;26.10;53.90;;;;;;5009914;28;20467;-77
2023/07/13 08:42:45;;;;;;;11.63;3.70;;;25.60;55.00;;;;;;5010664;28;20491;-77
2023/07/13 08:45:17;;;;;;;6.30;2.90;;;25.00;58.80;;;;;;5019017;28;20492;-78
2023/07/13 08:47:49;;;;;;;8.13;2.87;;;24.50;57.50;;;;;;5016878;28;20532;-77
2023/07/13 08:50:18;;;;;;;5.60;2.60;;;24.30;58.70;;;;;;5015896;28;20454;-77
2023/07/13 08:52:47;;;;;;;7.00;3.10;;;24.50;57.70;;;;;;5014365;28;20419;-77
2023/07/13 08:55:17;;;;;;;6.90;3.00;;;24.80;57.70;;;;;;5016457;28;20522;-77
2023/07/13 08:57:47;;;;;;;11.80;2.83;;;24.90;57.50;;;;;;5009823;28;20407;-77
2023/07/13 09:00:16;;;;;;;8.83;3.07;;;24.90;58.20;;;;;;5015016;28;20432;-77
2023/07/13 09:02:49;;;;;;;8.87;2.70;;;24.50;58.00;;;;;;5010471;28;20460;-76
2023/07/13 09:05:18;;;;;;;7.90;3.00;;;24.30;58.40;;;;;;5013730;28;20530;-77
2023/07/13 09:08:02;;;;;;;11.50;3.17;;;23.90;57.60;;;;;;5019589;28;20447;-78
2023/07/13 09:10:31;;;;;;;6.03;2.97;;;23.70;59.80;;;;;;5014211;28;20464;-77
2023/07/13 09:13:07;;;;;;;13.03;3.30;;;24.10;60.60;;;;;;5010694;28;20460;-77
2023/07/13 09:15:36;;;;;;;6.20;2.80;;;24.20;59.50;;;;;;5008443;28;20524;-76
2023/07/13 09:18:09;;;;;;;7.60;2.57;;;24.50;60.30;;;;;;5010709;28;20484;-75
2023/07/13 09:20:38;;;;;;;13.27;5.00;;;25.10;60.30;;;;;;5006428;28;20419;-74
2023/07/13 09:23:08;;;;;;;9.60;4.00;;;25.30;56.70;;;;;;5014154;28;20440;-76
2023/07/13 09:25:36;;;;;;;6.57;2.70;;;25.20;56.40;;;;;;5014792;28;20543;-76
2023/07/13 09:28:11;;;;;;;9.77;3.00;;;25.00;57.20;;;;;;5014232;28;20434;-76
2023/07/13 09:30:41;;;;;;;4.77;2.40;;;24.50;57.10;;;;;;5007996;28;20443;-75
2023/07/13 09:33:10;;;;;;;8.17;3.20;;;24.30;57.90;;;;;;5014437;28;20498;-76
2023/07/13 09:35:38;;;;;;;4.43;2.20;;;24.60;57.70;;;;;;5008115;28;20466;-75
2023/07/13 09:38:12;;;;;;;3.83;2.80;;;25.30;58.70;;;;;;5013441;28;20436;-76
2023/07/13 09:40:44;;;;;;;13.23;3.20;;;25.50;53.80;;;;;;5010586;28;20956;-76
2023/07/13 09:43:14;;;;;;;8.10;3.00;;;24.40;54.60;;;;;;5013829;28;20505;-76
2023/07/13 09:45:41;;;;;;;4.47;2.57;;;24.40;56.00;;;;;;5010853;28;20456;-76
2023/07/13 09:48:14;;;;;;;21.87;2.63;;;24.60;56.90;;;;;;5013738;28;20483;-76
2023/07/13 09:50:42;;;;;;;6.90;2.57;;;24.60;55.60;;;;;;5006055;28;20525;-76
2023/07/13 09:53:14;;;;;;;5.20;2.50;;;24.80;56.10;;;;;;5013956;28;20480;-77
2023/07/13 09:55:43;;;;;;;3.60;2.33;;;24.80;56.70;;;;;;5010689;28;20501;-77
2023/07/13 09:58:12;;;;;;;6.50;2.83;;;24.60;54.90;;;;;;5013515;28;20440;-77
2023/07/13 10:00:40;;;;;;;4.33;2.37;;;24.60;57.00;;;;;;5018839;28;20441;-77
2023/07/13 10:03:18;;;;;;;2.87;2.67;;;25.30;55.50;;;;;;5006929;28;20461;-78
2023/07/13 10:05:46;;;;;;;3.50;2.40;;;25.60;54.30;;;;;;5013332;28;20434;-78
2023/07/13 10:08:24;;;;;;;2.63;2.20;;;25.60;53.40;;;;;;5011103;28;20481;-78
2023/07/13 10:10:59;;;;;;;2.70;2.20;;;25.20;52.20;;;;;;5013479;28;20478;-78
2023/07/13 10:13:34;;;;;;;3.27;2.87;;;25.20;53.30;;;;;;5014776;28;20476;-78
2023/07/13 10:16:02;;;;;;;3.00;2.67;;;25.30;52.70;;;;;;5014385;28;20464;-78
2023/07/13 10:18:32;;;;;;;9.07;2.27;;;25.50;52.90;;;;;;5013500;28;20544;-79
2023/07/13 10:21:09;;;;;;;4.50;2.03;;;25.70;52.30;;;;;;5008909;28;20430;-79
2023/07/13 10:24:01;;;;;;;4.00;2.60;;;25.90;51.90;;;;;;5007867;28;20403;-79
2023/07/13 10:26:32;;;;;;;2.67;2.07;;;26.40;52.50;;;;;;5014173;28;20435;-77
2023/07/13 10:29:03;;;;;;;4.87;2.17;;;26.60;53.30;;;;;;5013176;28;20519;-78
2023/07/13 10:31:31;;;;;;;3.63;2.57;;;26.90;52.50;;;;;;5017154;28;20445;-77
2023/07/13 10:34:01;;;;;;;4.07;2.27;;;27.50;50.40;;;;;;5013211;28;20423;-78
2023/07/13 10:36:32;;;;;;;4.43;1.90;;;27.40;50.20;;;;;;5011790;28;20458;-79
2023/07/13 10:39:02;;;;;;;4.80;2.83;;;27.00;49.60;;;;;;5008056;28;20528;-78
2023/07/13 10:41:31;;;;;;;3.90;2.37;;;26.80;51.10;;;;;;5012801;28;20943;-77
2023/07/13 10:43:59;;;;;;;5.40;2.73;;;26.60;51.50;;;;;;5012932;28;20469;-79
2023/07/13 10:46:28;;;;;;;4.20;3.03;;;26.90;51.40;;;;;;5004289;28;20480;-78
2023/07/13 10:48:58;;;;;;;12.83;3.07;;;26.30;52.40;;;;;;5013788;28;20476;-81
2023/07/13 10:51:27;;;;;;;4.70;2.60;;;26.20;56.40;;;;;;5022495;28;20471;-81
2023/07/13 10:54:23;;;;;;;7.37;2.77;;;27.10;54.00;;;;;;5014787;28;20431;-80
2023/07/13 10:56:52;;;;;;;3.90;2.53;;;28.00;52.00;;;;;;4974509;28;20544;-80
2023/07/13 10:59:26;;;;;;;3.23;2.23;;;28.50;50.90;;;;;;5014570;28;20450;-78
2023/07/13 11:01:57;;;;;;;4.60;2.30;;;28.80;50.10;;;;;;5006461;28;20440;-78
2023/07/13 11:04:27;;;;;;;4.17;2.93;;;29.00;49.60;;;;;;5012569;28;20488;-78
2023/07/13 11:06:59;;;;;;;5.30;3.00;;;29.20;49.00;;;;;;5012709;28;20481;-79
2023/07/13 11:09:38;;;;;;;4.27;2.97;;;29.30;48.90;;;;;;5010330;28;20457;-78
2023/07/13 11:12:13;;;;;;;3.30;2.80;;;29.40;48.80;;;;;;5016542;28;20906;-78
2023/07/13 11:15:06;;;;;;;3.00;2.80;;;29.60;48.60;;;;;;5012412;28;20466;-78
2023/07/13 11:17:37;;;;;;;4.50;2.73;;;29.60;48.50;;;;;;5011369;28;20414;-77
2023/07/13 11:20:19;;;;;;;4.17;3.50;;;29.70;48.20;;;;;;5018471;28;20415;-79
2023/07/13 11:22:49;;;;;;;3.37;3.07;;;29.80;48.20;;;;;;5012432;28;20528;-80
2023/07/13 11:25:29;;;;;;;6.07;3.17;;;29.90;48.00;;;;;;5008854;28;20472;-80
2023/07/13 11:28:14;;;;;;;3.50;2.50;;;30.00;48.00;;;;;;5015092;28;20464;-82
2023/07/13 11:30:44;;;;;;;3.37;2.83;;;30.00;47.90;;;;;;5013229;28;21006;-78
2023/07/13 11:33:15;;;;;;;2.03;1.83;;;30.10;48.00;;;;;;5012734;28;20423;-77
2023/07/13 11:35:47;;;;;;;2.83;2.13;;;28.00;46.80;;;;;;5011655;28;20973;-77
2023/07/13 11:38:19;;;;;;;5.60;1.90;;;26.20;51.30;;;;;;5011814;28;20846;-77
2023/07/13 11:40:48;;;;;;;6.20;4.10;;;25.30;55.30;;;;;;5016450;28;20480;-78
2023/07/13 11:43:19;;;;;;;6.90;4.27;;;24.80;57.00;;;;;;5009022;28;20573;-78
2023/07/13 11:45:47;;;;;;;4.47;3.50;;;24.10;59.30;;;;;;5014818;28;20425;-78
2023/07/13 11:48:22;;;;;;;6.87;2.70;;;23.50;60.10;;;;;;5014249;28;20443;-77
2023/07/13 11:50:55;;;;;;;7.90;4.90;;;23.10;63.50;;;;;;5007493;28;20559;-78
2023/07/13 11:53:25;;;;;;;5.23;4.70;;;23.10;65.50;;;;;;5009414;28;20488;-78
2023/07/13 11:55:53;;;;;;;6.17;4.20;;;23.10;65.70;;;;;;5007076;28;20488;-78
2023/07/13 11:58:24;;;;;;;9.20;6.97;;;23.60;64.30;;;;;;5018298;28;20483;-78
2023/07/13 12:00:54;;;;;;;11.50;8.13;;;25.30;66.50;;;;;;5003658;28;20535;-78
2023/07/13 12:03:24;;;;;;;3.47;3.00;;;26.20;60.80;;;;;;5011386;28;20455;-78
2023/07/13 12:06:00;;;;;;;3.17;2.90;;;28.40;56.00;;;;;;5006727;28;20466;-78
2023/07/13 12:08:29;;;;;;;2.37;2.20;;;30.30;52.90;;;;;;5015081;28;20436;-79
2023/07/13 12:10:59;;;;;;;2.30;1.90;;;31.60;47.10;;;;;;5010984;28;20560;-79
2023/07/13 12:13:28;;;;;;;3.43;1.63;;;32.50;46.90;;;;;;5014083;28;20472;-79
2023/07/13 12:15:56;;;;;;;2.00;1.90;;;32.90;44.20;;;;;;5010965;28;20472;-78
2023/07/13 12:18:30;;;;;;;2.43;2.00;;;31.60;45.60;;;;;;5006039;28;20468;-79
2023/07/13 12:20:59;;;;;;;2.40;2.00;;;29.70;47.10;;;;;;5013943;28;20414;-78
2023/07/13 12:23:31;;;;;;;3.17;2.40;;;28.70;49.10;;;;;;5014786;28;20579;-79
2023/07/13 12:26:00;;;;;;;2.60;2.20;;;27.80;51.20;;;;;;5018989;28;20456;-78
2023/07/13 12:28:33;;;;;;;2.53;2.10;;;27.30;52.40;;;;;;5014736;28;20449;-77
2023/07/13 12:31:02;;;;;;;2.70;2.37;;;27.10;53.20;;;;;;5011319;28;20442;-78
2023/07/13 12:33:32;;;;;;;3.50;2.77;;;29.50;53.00;;;;;;5020261;28;20454;-78
2023/07/13 12:36:01;;;;;;;1.93;1.83;;;31.90;47.80;;;;;;5010631;28;20475;-78
2023/07/13 12:38:31;;;;;;;2.07;1.70;;;33.30;44.00;;;;;;5014493;28;20543;-78
2023/07/13 12:40:59;;;;;;;1.40;1.40;;;33.80;42.60;;;;;;5011767;28;20471;-76
2023/07/13 12:43:28;;;;;;;3.70;1.63;;;33.70;41.30;;;;;;5018185;28;20614;-77
2023/07/13 12:45:57;;;;;;;1.50;1.40;;;33.00;42.40;;;;;;5008032;28;20460;-76
2023/07/13 12:48:25;;;;;;;2.80;1.60;;;33.40;43.10;;;;;;5010639;28;20479;-77
2023/07/13 12:51:13;;;;;;;2.67;1.50;;;33.50;40.40;;;;;;5012607;28;21005;-77
2023/07/13 12:53:43;;;;;;;1.93;1.83;;;32.10;41.90;;;;;;5014325;28;20443;-76
2023/07/13 12:56:16;;;;;;;2.00;1.90;;;31.30;42.80;;;;;;5020147;28;20543;-76
2023/07/13 12:58:45;;;;;;;4.10;2.10;;;30.90;44.50;;;;;;5017900;28;20526;-76